KYIP/YIP METAR and TAF weather

Enter ICAO airport designator
Station Type Date Time Source
KYIP METAR 2021/03/02 13:53 UTC NOAA

KYIP 021353Z AUTO 17005KT 10SM CLR M04/M14 A3033 RMK AO2 SLP278 T10441139


Station Type Date Time Source
KYIP Decoded METAR 2021/03/02 13:53 UTC NOAA

WILLOW RUN AIRPORT, MI, United States (KYIP) 42-14N 083-32W 215M
Mar 02, 2021 - 08:53 AM EST / 2021.03.02 1353 UTC
Wind: from the S (170 degrees) at 6 MPH (5 KT):0
Visibility: 10 mile(s):0
Sky conditions: clear
Temperature: 24.1 F (-4.4 C)
Windchill: 17 F (-8 C):1
Dew Point: 7.0 F (-13.9 C)
Relative Humidity: 47%
Pressure (altimeter): 30.33 in. Hg (1027 hPa)
ob: KYIP 021353Z AUTO 17005KT 10SM CLR M04/M14 A3033 RMK AO2 SLP278 T10441139
cycle: 14

Station Type Date Time Source
KYIP TAF 2021/03/02 12:24 UTC NOAA

TAF KYIP 021123Z 0212/0312 22005KT P6SM FEW250
FM021600 21012KT P6SM SCT100 BKN250
FM021900 21014G22KT P6SM SCT100 BKN250
FM030000 22008G17KT P6SM SKC
FM030600 24009KT P6SM SKC

Example: see airport list